createdAt,value
2024-01-19T00:00:32.448Z,22.55
2024-01-19T00:02:59.574Z,22.20
2024-01-19T00:05:26.767Z,22.45
2024-01-19T00:07:53.941Z,21.67
2024-01-19T00:10:21.030Z,22.25
2024-01-19T00:12:48.356Z,22.38
2024-01-19T00:15:15.442Z,23.77
2024-01-19T00:17:42.584Z,23.38
2024-01-19T00:20:11.123Z,23.40
2024-01-19T00:22:38.240Z,22.65
2024-01-19T00:25:05.784Z,23.48
2024-01-19T00:27:33.113Z,22.90
2024-01-19T00:30:00.344Z,23.50
2024-01-19T00:32:27.485Z,22.23
2024-01-19T00:34:54.783Z,20.05
2024-01-19T00:37:21.884Z,22.73
2024-01-19T00:39:49.044Z,24.38
2024-01-19T00:42:16.117Z,23.70
2024-01-19T00:44:43.260Z,22.30
2024-01-19T00:47:10.356Z,24.90
2024-01-19T00:49:37.587Z,24.17
2024-01-19T00:52:05.087Z,23.70
2024-01-19T00:54:32.183Z,21.20
2024-01-19T00:56:59.363Z,22.60
2024-01-19T00:59:26.941Z,20.38
2024-01-19T01:04:21.102Z,21.25
2024-01-19T01:06:48.333Z,23.52
2024-01-19T01:09:15.867Z,22.35
2024-01-19T01:11:43.014Z,22.13
2024-01-19T01:14:10.374Z,24.20
2024-01-19T01:16:37.466Z,24.25
2024-01-19T01:19:04.621Z,21.40
2024-01-19T01:21:31.705Z,19.80
2024-01-19T01:23:58.889Z,22.63
2024-01-19T01:26:26.075Z,19.38
2024-01-19T01:28:53.229Z,18.42
2024-01-19T01:31:20.299Z,19.17
2024-01-19T01:33:47.528Z,17.10
2024-01-19T01:36:14.808Z,18.75
2024-01-19T01:38:41.952Z,19.85
2024-01-19T01:41:09.084Z,18.02
2024-01-19T01:43:36.638Z,16.98
2024-01-19T01:46:04.152Z,16.42
2024-01-19T01:48:31.467Z,17.02
2024-01-19T01:50:58.815Z,17.15
2024-01-19T01:53:26.647Z,16.08
2024-01-19T01:55:55.126Z,18.17
2024-01-19T01:58:22.191Z,16.30
2024-01-19T02:00:49.442Z,18.75
2024-01-19T02:03:16.680Z,17.50
2024-01-19T02:05:44.138Z,16.85
2024-01-19T02:08:11.418Z,15.25
2024-01-19T02:10:38.613Z,16.35
2024-01-19T02:13:05.782Z,16.05
2024-01-19T02:15:35.427Z,17.38
2024-01-19T02:18:02.720Z,14.98
2024-01-19T02:20:29.931Z,14.55
2024-01-19T02:22:57.765Z,16.05
2024-01-19T02:25:24.917Z,16.00
2024-01-19T02:27:52.244Z,14.27
2024-01-19T02:30:19.572Z,15.27
2024-01-19T02:32:46.687Z,16.25
2024-01-19T02:35:13.991Z,15.70
2024-01-19T02:37:41.086Z,15.02
2024-01-19T02:40:08.961Z,11.73
2024-01-19T02:42:36.061Z,15.35
2024-01-19T02:45:03.261Z,13.77
2024-01-19T02:47:31.775Z,14.45
2024-01-19T02:50:00.256Z,14.38
2024-01-19T02:52:27.413Z,16.83
2024-01-19T02:54:54.649Z,15.18
2024-01-19T02:57:21.718Z,16.77
2024-01-19T02:59:48.905Z,16.48
2024-01-19T03:02:16.345Z,18.95
2024-01-19T03:04:43.460Z,14.90
2024-01-19T03:07:10.559Z,11.13
2024-01-19T03:09:37.629Z,14.38
2024-01-19T03:12:07.060Z,17.00
2024-01-19T03:14:35.756Z,14.75
2024-01-19T03:17:03.811Z,15.75
2024-01-19T03:19:33.093Z,15.88
2024-01-19T03:22:00.231Z,17.92
2024-01-19T03:24:27.364Z,12.73
2024-01-19T03:26:54.577Z,15.18
2024-01-19T03:29:24.078Z,16.00
2024-01-19T03:31:51.265Z,16.83
2024-01-19T03:34:19.014Z,16.75
2024-01-19T03:36:46.083Z,15.98
2024-01-19T03:39:13.820Z,15.30
2024-01-19T03:41:40.971Z,17.02
2024-01-19T03:44:08.053Z,15.30
2024-01-19T03:46:35.123Z,15.38
2024-01-19T03:49:07.049Z,15.80
2024-01-19T03:51:34.149Z,15.38
2024-01-19T03:54:01.251Z,15.75
2024-01-19T03:56:28.356Z,17.15
2024-01-19T03:58:55.660Z,16.88
2024-01-19T04:01:22.748Z,16.40
2024-01-19T04:03:50.012Z,12.63
2024-01-19T04:06:17.451Z,15.77
2024-01-19T04:08:44.600Z,16.83
2024-01-19T04:11:11.735Z,16.42
2024-01-19T04:13:39.091Z,14.07
2024-01-19T04:16:06.785Z,15.98
2024-01-19T04:21:01.000Z,18.45
2024-01-19T04:23:28.093Z,16.20
2024-01-19T04:25:55.150Z,12.20
2024-01-19T04:28:22.191Z,15.93
2024-01-19T04:30:49.282Z,15.32
2024-01-19T04:33:16.434Z,16.42
2024-01-19T04:35:43.651Z,16.85
2024-01-19T04:38:10.785Z,17.27
2024-01-19T04:40:37.850Z,17.60
2024-01-19T04:43:04.940Z,15.63
2024-01-19T04:45:32.376Z,19.13
2024-01-19T04:47:59.638Z,16.85
2024-01-19T04:50:26.716Z,16.98
2024-01-19T04:52:53.824Z,17.50
2024-01-19T04:55:20.864Z,20.30
2024-01-19T04:57:48.002Z,17.50
2024-01-19T05:00:16.128Z,18.98
2024-01-19T05:02:44.454Z,17.80
2024-01-19T05:05:11.586Z,16.75
2024-01-19T05:07:38.704Z,17.92
2024-01-19T05:10:07.132Z,19.58
2024-01-19T05:12:34.876Z,17.98
2024-01-19T05:15:02.346Z,20.95
2024-01-19T05:17:29.648Z,18.88
2024-01-19T05:19:56.938Z,17.35
2024-01-19T05:22:24.033Z,17.55
2024-01-19T05:24:51.150Z,19.75
2024-01-19T05:27:18.352Z,17.73
2024-01-19T05:29:45.473Z,19.60
2024-01-19T05:32:12.635Z,17.60
2024-01-19T05:34:39.773Z,17.00
2024-01-19T05:37:06.940Z,18.95
2024-01-19T05:39:34.054Z,19.10
2024-01-19T05:42:01.154Z,21.05
2024-01-19T05:44:28.239Z,14.20
2024-01-19T05:46:55.334Z,19.88
2024-01-19T05:49:22.407Z,19.30
2024-01-19T05:51:49.526Z,17.40
2024-01-19T05:54:16.652Z,18.38
2024-01-19T05:56:43.748Z,17.40
2024-01-19T05:59:10.883Z,19.52
2024-01-19T06:01:38.054Z,18.20
2024-01-19T06:04:05.259Z,17.20
2024-01-19T06:06:32.397Z,20.60
2024-01-19T06:08:59.604Z,18.30
2024-01-19T06:11:26.861Z,18.27
2024-01-19T06:13:53.988Z,19.05
2024-01-19T06:16:21.415Z,17.65
2024-01-19T06:18:49.224Z,18.70
2024-01-19T06:21:16.588Z,17.63
2024-01-19T06:23:43.691Z,21.38
2024-01-19T06:26:12.019Z,17.77
2024-01-19T06:28:39.867Z,19.20
2024-01-19T06:33:38.636Z,16.83
2024-01-19T06:36:10.658Z,17.45
2024-01-19T06:38:37.786Z,18.25
2024-01-19T06:41:06.367Z,20.70
2024-01-19T06:43:33.458Z,18.20
2024-01-19T06:46:00.688Z,13.05
2024-01-19T06:48:27.886Z,18.75
2024-01-19T06:50:55.513Z,18.38
2024-01-19T06:53:22.633Z,13.82
2024-01-19T06:55:50.201Z,19.00
2024-01-19T06:58:17.286Z,18.15
2024-01-19T07:00:44.430Z,18.27
2024-01-19T07:03:11.748Z,18.98
2024-01-19T07:05:39.797Z,17.65
2024-01-19T07:08:07.117Z,17.25
2024-01-19T07:10:34.559Z,17.17
2024-01-19T07:13:01.727Z,21.00
2024-01-19T07:15:29.522Z,18.50
2024-01-19T07:17:56.863Z,19.08
2024-01-19T07:20:24.364Z,17.35
2024-01-19T07:22:58.020Z,17.05
2024-01-19T07:25:25.750Z,14.30
2024-01-19T07:27:52.930Z,16.45
2024-01-19T07:30:20.181Z,15.02
2024-01-19T07:32:56.843Z,16.63
2024-01-19T07:35:32.313Z,15.38
2024-01-19T07:37:59.708Z,15.88
2024-01-19T07:40:27.815Z,14.98
2024-01-19T07:42:54.983Z,13.30
2024-01-19T07:45:22.037Z,13.95
2024-01-19T07:47:49.220Z,12.52
2024-01-19T07:50:17.264Z,12.75
2024-01-19T07:52:44.489Z,14.30
2024-01-19T07:55:11.592Z,13.02
2024-01-19T07:57:38.679Z,14.43
2024-01-19T08:00:07.347Z,11.98
2024-01-19T08:02:34.485Z,13.40
2024-01-19T08:05:01.670Z,12.50
2024-01-19T08:07:29.096Z,10.68
2024-01-19T08:09:56.213Z,11.45
2024-01-19T08:12:23.331Z,14.80
2024-01-19T08:14:51.575Z,17.75
2024-01-19T08:17:19.138Z,11.07
2024-01-19T08:19:46.913Z,11.30
2024-01-19T08:24:40.974Z,9.65
2024-01-19T08:27:08.498Z,9.75
2024-01-19T08:29:35.732Z,8.60
2024-01-19T08:32:02.899Z,9.73
2024-01-19T08:34:30.425Z,9.52
2024-01-19T08:36:57.711Z,9.73
2024-01-19T08:39:24.747Z,9.07
2024-01-19T08:41:51.852Z,9.18
2024-01-19T08:44:19.295Z,8.88
2024-01-19T08:49:14.601Z,8.05
2024-01-19T08:51:43.727Z,8.93
2024-01-19T08:54:11.288Z,7.78
2024-01-19T08:56:43.043Z,7.20
2024-01-19T08:59:17.097Z,7.80
2024-01-19T09:01:44.231Z,7.15
2024-01-19T09:04:11.440Z,8.45
2024-01-19T09:06:40.208Z,8.00
2024-01-19T09:09:09.764Z,7.60
2024-01-19T09:11:36.918Z,7.05
2024-01-19T09:14:04.116Z,6.70
2024-01-19T09:16:31.197Z,7.32
2024-01-19T09:18:59.313Z,6.28
2024-01-19T09:21:26.760Z,6.45
2024-01-19T09:23:54.615Z,6.22
2024-01-19T09:26:22.697Z,7.28
2024-01-19T09:28:50.444Z,5.85
2024-01-19T09:33:46.298Z,5.15
2024-01-19T09:36:14.149Z,6.30
2024-01-19T09:38:41.930Z,5.65
2024-01-19T09:41:40.789Z,7.03
2024-01-19T09:44:09.843Z,7.60
2024-01-19T09:46:52.538Z,6.93
2024-01-19T09:49:31.882Z,5.75
2024-01-19T09:52:25.681Z,5.20
2024-01-19T09:54:52.984Z,6.68
2024-01-19T09:57:20.564Z,6.28
2024-01-19T09:59:47.759Z,6.13
2024-01-19T10:02:18.842Z,5.60
2024-01-19T10:04:46.241Z,5.93
2024-01-19T10:07:14.399Z,6.13
2024-01-19T10:09:42.305Z,5.70
2024-01-19T10:12:11.072Z,5.90
2024-01-19T10:14:38.219Z,6.20
2024-01-19T10:17:05.677Z,5.45
2024-01-19T10:19:34.970Z,5.55
2024-01-19T10:22:28.298Z,4.85
2024-01-19T10:25:15.872Z,5.22
2024-01-19T10:27:45.881Z,6.25
2024-01-19T10:30:13.474Z,5.22
2024-01-19T10:32:43.262Z,4.90
2024-01-19T10:35:18.703Z,5.80
2024-01-19T10:37:47.426Z,5.00
2024-01-19T10:40:24.593Z,5.00
2024-01-19T10:42:57.935Z,5.47
2024-01-19T10:45:29.815Z,5.22
2024-01-19T10:47:59.805Z,5.05
2024-01-19T10:50:29.288Z,6.07
2024-01-19T10:52:58.334Z,5.90
2024-01-19T10:55:29.142Z,4.97
2024-01-19T10:58:07.068Z,5.75
2024-01-19T11:00:37.218Z,5.20
2024-01-19T11:03:05.211Z,5.63
2024-01-19T11:05:33.711Z,5.03
2024-01-19T11:08:03.349Z,6.70
2024-01-19T11:10:32.453Z,5.28
2024-01-19T11:13:01.355Z,5.85
2024-01-19T11:15:41.973Z,4.70
2024-01-19T11:18:09.347Z,5.47
2024-01-19T11:20:36.613Z,6.20
2024-01-19T11:23:05.052Z,6.75
2024-01-19T11:25:43.183Z,6.20
2024-01-19T11:28:17.693Z,5.63
2024-01-19T11:31:02.069Z,5.93
2024-01-19T11:33:33.152Z,6.82
2024-01-19T11:36:00.712Z,5.50
2024-01-19T11:38:39.853Z,5.30
2024-01-19T11:41:06.918Z,6.70
2024-01-19T11:43:41.801Z,7.28
2024-01-19T11:46:10.896Z,6.35
2024-01-19T11:48:46.072Z,7.40
2024-01-19T11:51:33.872Z,7.20
2024-01-19T11:54:03.559Z,6.55
2024-01-19T11:56:31.386Z,7.28
2024-01-19T12:01:26.878Z,6.20
2024-01-19T12:03:56.087Z,6.95
2024-01-19T12:06:23.966Z,6.50
2024-01-19T12:09:02.423Z,6.88
2024-01-19T12:11:29.674Z,7.82
2024-01-19T12:14:05.731Z,7.90
2024-01-19T12:16:34.192Z,8.77
2024-01-19T12:19:01.629Z,8.38
2024-01-19T12:21:29.114Z,7.60
2024-01-19T12:23:58.449Z,7.70
2024-01-19T12:26:26.342Z,8.27
2024-01-19T12:31:23.601Z,7.80
2024-01-19T12:33:50.991Z,7.95
2024-01-19T12:36:23.763Z,8.90
2024-01-19T12:39:06.961Z,7.63
2024-01-19T12:41:34.844Z,7.75
2024-01-19T12:46:29.357Z,6.85
2024-01-19T12:49:06.076Z,8.30
2024-01-19T12:51:33.582Z,8.53
2024-01-19T12:54:01.501Z,8.32
2024-01-19T12:56:30.318Z,8.07
2024-01-19T12:59:11.695Z,7.63
2024-01-19T13:01:46.777Z,9.05
2024-01-19T13:04:16.781Z,7.03
2024-01-19T13:06:45.335Z,7.35
2024-01-19T13:09:17.574Z,8.63
2024-01-19T13:11:44.694Z,8.88
2024-01-19T13:14:13.433Z,8.95
2024-01-19T13:16:57.719Z,8.63
2024-01-19T13:19:25.295Z,8.82
2024-01-19T13:21:54.703Z,7.72
2024-01-19T13:24:25.383Z,7.22
2024-01-19T13:27:03.012Z,6.95
2024-01-19T13:29:30.935Z,7.18
2024-01-19T13:34:29.671Z,8.70
2024-01-19T13:36:58.518Z,8.73
2024-01-19T13:39:26.020Z,8.00
2024-01-19T13:41:53.369Z,8.77
2024-01-19T13:44:20.480Z,8.00
2024-01-19T13:46:47.633Z,8.18
2024-01-19T13:49:14.810Z,8.82
2024-01-19T13:51:42.568Z,9.32
2024-01-19T13:56:36.518Z,8.80
2024-01-19T13:59:03.770Z,9.15
2024-01-19T14:01:30.976Z,10.50
2024-01-19T14:03:58.130Z,9.48
2024-01-19T14:06:25.377Z,9.60
2024-01-19T14:08:53.709Z,8.38
2024-01-19T14:11:21.908Z,11.88
2024-01-19T14:13:49.867Z,7.88
2024-01-19T14:16:17.146Z,9.55
2024-01-19T14:18:44.369Z,8.77
2024-01-19T14:21:11.726Z,8.00
2024-01-19T14:23:38.949Z,9.15
2024-01-19T14:26:06.093Z,9.43
2024-01-19T14:28:33.819Z,9.65
2024-01-19T14:31:01.121Z,9.32
2024-01-19T14:33:28.314Z,9.15
2024-01-19T14:35:55.512Z,8.90
2024-01-19T14:38:22.700Z,9.13
2024-01-19T14:40:49.866Z,9.80
2024-01-19T14:43:16.966Z,10.95
2024-01-19T14:45:45.367Z,9.55
2024-01-19T14:48:13.023Z,9.85
2024-01-19T14:53:09.637Z,10.07
2024-01-19T14:55:37.118Z,10.32
2024-01-19T14:58:04.353Z,9.95
2024-01-19T15:00:33.720Z,9.50
2024-01-19T15:03:00.828Z,9.48
2024-01-19T15:05:27.892Z,9.13
2024-01-19T15:07:55.276Z,9.73
2024-01-19T15:10:22.401Z,9.00
2024-01-19T15:12:49.521Z,10.32
2024-01-19T15:15:16.702Z,9.30
2024-01-19T15:17:43.841Z,9.90
2024-01-19T15:20:11.616Z,9.18
2024-01-19T15:22:38.778Z,9.88
2024-01-19T15:25:10.022Z,9.07
2024-01-19T15:27:38.920Z,9.70
2024-01-19T15:30:07.322Z,9.57
2024-01-19T15:32:36.401Z,8.43
2024-01-19T15:35:06.967Z,10.00
2024-01-19T15:37:34.980Z,8.23
2024-01-19T15:40:02.237Z,8.38
2024-01-19T15:42:30.852Z,8.95
2024-01-19T15:44:58.105Z,9.88
2024-01-19T15:47:25.904Z,9.98
2024-01-19T15:49:53.075Z,9.45
2024-01-19T15:52:21.354Z,8.75
2024-01-19T15:54:50.390Z,8.85
2024-01-19T15:57:17.500Z,8.43
2024-01-19T15:59:45.963Z,10.00
2024-01-19T16:02:13.201Z,10.18
2024-01-19T16:04:40.434Z,9.30
2024-01-19T16:07:07.520Z,9.45
2024-01-19T16:09:34.588Z,8.77
2024-01-19T16:12:01.678Z,10.05
2024-01-19T16:14:28.748Z,7.38
2024-01-19T16:16:55.883Z,10.05
2024-01-19T16:19:22.958Z,7.38
2024-01-19T16:21:56.498Z,9.15
2024-01-19T16:24:24.664Z,8.63
2024-01-19T16:26:51.745Z,9.30
2024-01-19T16:29:21.558Z,8.38
2024-01-19T16:31:48.782Z,9.25
2024-01-19T16:34:15.901Z,7.80
2024-01-19T16:36:43.170Z,9.82
2024-01-19T16:39:10.343Z,7.30
2024-01-19T16:41:44.976Z,8.50
2024-01-19T16:44:12.672Z,10.30
2024-01-19T16:46:40.182Z,7.72
2024-01-19T16:49:07.643Z,9.63
2024-01-19T16:51:35.415Z,10.40
2024-01-19T16:56:32.604Z,8.38
2024-01-19T16:59:01.280Z,9.13
2024-01-19T17:01:28.903Z,8.68
2024-01-19T17:03:56.169Z,9.25
2024-01-19T17:06:24.817Z,7.95
2024-01-19T17:08:51.986Z,9.07
2024-01-19T17:11:19.190Z,7.95
2024-01-19T17:13:46.325Z,11.38
2024-01-19T17:16:16.923Z,8.82
2024-01-19T17:18:48.337Z,9.38
2024-01-19T17:21:15.627Z,7.90
2024-01-19T17:26:10.166Z,7.97
2024-01-19T17:28:37.871Z,8.15
2024-01-19T17:31:05.373Z,7.80
2024-01-19T17:33:33.527Z,7.30
2024-01-19T17:36:00.804Z,6.55
2024-01-19T17:38:28.777Z,7.95
2024-01-19T17:40:56.227Z,6.93
2024-01-19T17:43:24.850Z,7.35
2024-01-19T17:45:51.964Z,7.43
2024-01-19T17:48:23.140Z,8.18
2024-01-19T17:50:50.991Z,7.80
2024-01-19T17:55:45.116Z,8.55
2024-01-19T17:58:12.245Z,7.75
2024-01-19T18:00:39.322Z,9.40
2024-01-19T18:03:08.925Z,8.13
2024-01-19T18:05:36.165Z,8.40
2024-01-19T18:08:03.590Z,8.88
2024-01-19T18:10:30.899Z,8.90
2024-01-19T18:12:58.109Z,8.50
2024-01-19T18:15:25.638Z,8.45
2024-01-19T18:17:52.830Z,9.38
2024-01-19T18:20:20.457Z,10.57
2024-01-19T18:22:47.681Z,9.70
2024-01-19T18:25:14.904Z,8.68
2024-01-19T18:27:41.978Z,9.90
2024-01-19T18:30:09.679Z,10.75
2024-01-19T18:32:37.012Z,10.13
2024-01-19T18:35:04.510Z,9.02
2024-01-19T18:37:32.511Z,9.35
2024-01-19T18:40:02.890Z,8.45
2024-01-19T18:42:30.172Z,9.63
2024-01-19T18:44:57.285Z,10.27
2024-01-19T18:47:25.661Z,8.73
2024-01-19T18:49:53.674Z,9.25
2024-01-19T18:52:23.038Z,10.30
2024-01-19T18:54:50.538Z,9.38
2024-01-19T18:57:17.689Z,8.88
2024-01-19T18:59:44.874Z,10.07
2024-01-19T19:02:13.621Z,10.05
2024-01-19T19:04:41.328Z,9.82
2024-01-19T19:07:08.701Z,9.98
2024-01-19T19:09:36.297Z,8.10
2024-01-19T19:12:03.654Z,10.82
2024-01-19T19:14:31.274Z,11.27
2024-01-19T19:16:58.523Z,9.40
2024-01-19T19:19:29.381Z,8.95
2024-01-19T19:21:58.444Z,8.88
2024-01-19T19:24:26.214Z,10.40
2024-01-19T19:26:53.350Z,10.00
2024-01-19T19:29:20.885Z,9.95
2024-01-19T19:31:48.179Z,9.80
2024-01-19T19:34:16.749Z,8.57
2024-01-19T19:36:45.067Z,9.25
2024-01-19T19:39:12.217Z,10.02
2024-01-19T19:41:46.334Z,8.73
2024-01-19T19:44:14.012Z,9.40
2024-01-19T19:49:08.404Z,9.77
2024-01-19T19:51:37.514Z,8.95
2024-01-19T19:54:05.010Z,9.73
2024-01-19T19:56:32.317Z,8.50
2024-01-19T19:58:59.669Z,7.45
2024-01-19T20:01:27.440Z,6.68
2024-01-19T20:06:24.373Z,7.40
2024-01-19T20:08:52.285Z,7.35
2024-01-19T20:11:20.333Z,8.02
2024-01-19T20:13:48.195Z,9.98
2024-01-19T20:18:42.717Z,8.80
2024-01-19T20:21:11.454Z,10.30
2024-01-19T20:23:38.528Z,7.95
2024-01-19T20:26:11.517Z,9.02
2024-01-19T20:28:39.520Z,8.90
2024-01-19T20:31:06.897Z,8.82
2024-01-19T20:33:34.430Z,9.85
2024-01-19T20:36:03.699Z,8.50
2024-01-19T20:38:31.253Z,9.55
2024-01-19T20:40:58.600Z,9.02
2024-01-19T20:43:25.677Z,8.52
2024-01-19T20:45:52.765Z,9.75
2024-01-19T20:48:20.457Z,8.85
2024-01-19T20:50:47.656Z,7.60
2024-01-19T20:53:15.007Z,7.80
2024-01-19T20:58:10.917Z,7.47
2024-01-19T21:00:38.485Z,7.65
2024-01-19T21:03:05.793Z,8.82
2024-01-19T21:05:33.330Z,8.43
2024-01-19T21:08:00.881Z,7.57
2024-01-19T21:10:29.670Z,7.68
2024-01-19T21:12:57.559Z,7.57
2024-01-19T21:15:27.249Z,7.38
2024-01-19T21:17:55.443Z,8.70
2024-01-19T21:20:24.268Z,8.55
2024-01-19T21:22:51.839Z,7.85
2024-01-19T21:25:21.415Z,7.88
2024-01-19T21:27:48.616Z,7.43
2024-01-19T21:30:15.861Z,7.38
2024-01-19T21:32:43.004Z,7.30
2024-01-19T21:35:10.455Z,7.53
2024-01-19T21:37:37.648Z,8.45
2024-01-19T21:40:05.618Z,8.52
2024-01-19T21:42:33.095Z,9.82
2024-01-19T21:47:28.337Z,8.23
2024-01-19T21:49:55.560Z,7.45
2024-01-19T21:52:23.311Z,8.15
2024-01-19T21:54:50.711Z,7.18
2024-01-19T21:57:18.642Z,7.80
2024-01-19T22:02:13.685Z,6.82
2024-01-19T22:04:41.696Z,7.68
2024-01-19T22:07:09.211Z,7.05
2024-01-19T22:09:38.075Z,7.93
2024-01-19T22:12:08.095Z,8.23
2024-01-19T22:14:35.637Z,7.97
2024-01-19T22:17:02.832Z,7.65
2024-01-19T22:19:30.008Z,7.53
2024-01-19T22:21:57.534Z,7.82
2024-01-19T22:24:24.609Z,8.45
2024-01-19T22:26:51.715Z,7.35
2024-01-19T22:29:19.122Z,6.55
2024-01-19T22:31:46.943Z,7.90
2024-01-19T22:34:16.225Z,8.40
2024-01-19T22:36:46.063Z,6.32
2024-01-19T22:39:13.823Z,7.30
2024-01-19T22:41:42.937Z,6.25
2024-01-19T22:44:10.426Z,7.22
2024-01-19T22:46:37.609Z,5.57
2024-01-19T22:49:04.806Z,7.20
2024-01-19T22:51:32.585Z,7.10
2024-01-19T22:54:00.189Z,7.53
2024-01-19T22:56:27.399Z,9.13
2024-01-19T22:58:55.890Z,7.97
2024-01-19T23:01:23.048Z,7.45
2024-01-19T23:03:50.358Z,7.35
2024-01-19T23:06:17.685Z,6.85
2024-01-19T23:08:45.026Z,7.22
2024-01-19T23:11:12.197Z,7.57
2024-01-19T23:13:39.572Z,6.82
2024-01-19T23:16:08.448Z,7.05
2024-01-19T23:18:35.735Z,6.30
2024-01-19T23:21:03.366Z,8.38
2024-01-19T23:23:32.182Z,7.00
2024-01-19T23:26:00.541Z,6.85
2024-01-19T23:28:27.944Z,5.68
2024-01-19T23:30:55.339Z,6.80
2024-01-19T23:33:23.059Z,7.15
2024-01-19T23:35:50.557Z,6.38
2024-01-19T23:38:19.161Z,5.10
2024-01-19T23:40:46.407Z,6.80
2024-01-19T23:43:13.773Z,5.63
2024-01-19T23:45:40.947Z,5.20
2024-01-19T23:48:08.176Z,5.88
2024-01-19T23:50:35.635Z,6.70
2024-01-19T23:53:03.088Z,6.65
2024-01-19T23:55:30.247Z,6.50
2024-01-19T23:57:57.792Z,7.03
